sensor_id;sensor_type;location;lat;lon;timestamp;P1;durP1;ratioP1;P2;durP2;ratioP2
19402;SDS011;9837;48.888;8.998;2023-07-20T00:00:38;3.43;;;2.03;;
19402;SDS011;9837;48.888;8.998;2023-07-20T00:03:11;3.17;;;1.90;;
19402;SDS011;9837;48.888;8.998;2023-07-20T00:05:41;4.53;;;2.27;;
19402;SDS011;9837;48.888;8.998;2023-07-20T00:08:08;2.73;;;2.20;;
19402;SDS011;9837;48.888;8.998;2023-07-20T00:10:33;2.37;;;1.57;;
19402;SDS011;9837;48.888;8.998;2023-07-20T00:12:59;2.57;;;2.03;;
19402;SDS011;9837;48.888;8.998;2023-07-20T00:15:24;2.73;;;2.07;;
19402;SDS011;9837;48.888;8.998;2023-07-20T00:17:50;3.27;;;1.80;;
19402;SDS011;9837;48.888;8.998;2023-07-20T00:20:16;3.37;;;1.87;;
19402;SDS011;9837;48.888;8.998;2023-07-20T00:22:42;3.07;;;1.93;;
19402;SDS011;9837;48.888;8.998;2023-07-20T00:25:08;6.07;;;2.10;;
19402;SDS011;9837;48.888;8.998;2023-07-20T00:27:36;4.40;;;2.20;;
19402;SDS011;9837;48.888;8.998;2023-07-20T00:30:03;4.90;;;2.20;;
19402;SDS011;9837;48.888;8.998;2023-07-20T00:32:29;3.60;;;1.90;;
19402;SDS011;9837;48.888;8.998;2023-07-20T00:34:54;2.20;;;1.90;;
19402;SDS011;9837;48.888;8.998;2023-07-20T00:37:20;2.13;;;1.57;;
19402;SDS011;9837;48.888;8.998;2023-07-20T00:39:46;4.50;;;1.93;;
19402;SDS011;9837;48.888;8.998;2023-07-20T00:42:11;3.77;;;2.30;;
19402;SDS011;9837;48.888;8.998;2023-07-20T00:44:37;3.87;;;1.97;;
19402;SDS011;9837;48.888;8.998;2023-07-20T00:47:03;4.20;;;2.00;;
19402;SDS011;9837;48.888;8.998;2023-07-20T00:49:29;3.83;;;1.93;;
19402;SDS011;9837;48.888;8.998;2023-07-20T00:51:55;4.50;;;1.80;;
19402;SDS011;9837;48.888;8.998;2023-07-20T00:54:21;2.70;;;1.70;;
19402;SDS011;9837;48.888;8.998;2023-07-20T00:56:46;4.20;;;1.90;;
19402;SDS011;9837;48.888;8.998;2023-07-20T00:59:12;3.07;;;1.90;;
19402;SDS011;9837;48.888;8.998;2023-07-20T01:01:38;3.77;;;2.10;;
19402;SDS011;9837;48.888;8.998;2023-07-20T01:04:04;3.83;;;1.87;;
19402;SDS011;9837;48.888;8.998;2023-07-20T01:06:34;3.20;;;1.97;;
19402;SDS011;9837;48.888;8.998;2023-07-20T01:09:24;3.67;;;1.90;;
19402;SDS011;9837;48.888;8.998;2023-07-20T01:12:10;3.27;;;1.63;;
19402;SDS011;9837;48.888;8.998;2023-07-20T01:14:41;3.33;;;1.80;;
19402;SDS011;9837;48.888;8.998;2023-07-20T01:17:07;2.97;;;2.10;;
19402;SDS011;9837;48.888;8.998;2023-07-20T01:19:33;3.90;;;2.00;;
19402;SDS011;9837;48.888;8.998;2023-07-20T01:22:01;2.37;;;2.00;;
19402;SDS011;9837;48.888;8.998;2023-07-20T01:27:49;2.73;;;1.93;;
19402;SDS011;9837;48.888;8.998;2023-07-20T01:30:32;4.37;;;2.03;;
19402;SDS011;9837;48.888;8.998;2023-07-20T01:33:19;2.60;;;1.80;;
19402;SDS011;9837;48.888;8.998;2023-07-20T01:35:55;2.10;;;1.90;;
19402;SDS011;9837;48.888;8.998;2023-07-20T01:38:23;6.77;;;2.10;;
19402;SDS011;9837;48.888;8.998;2023-07-20T01:40:49;3.20;;;2.33;;
19402;SDS011;9837;48.888;8.998;2023-07-20T01:43:16;5.90;;;2.13;;
19402;SDS011;9837;48.888;8.998;2023-07-20T01:45:42;3.90;;;2.00;;
19402;SDS011;9837;48.888;8.998;2023-07-20T01:48:08;5.03;;;2.30;;
19402;SDS011;9837;48.888;8.998;2023-07-20T01:50:34;7.03;;;2.50;;
19402;SDS011;9837;48.888;8.998;2023-07-20T01:53:00;6.13;;;2.57;;
19402;SDS011;9837;48.888;8.998;2023-07-20T01:55:26;3.97;;;2.13;;
19402;SDS011;9837;48.888;8.998;2023-07-20T01:57:52;3.40;;;2.03;;
19402;SDS011;9837;48.888;8.998;2023-07-20T02:00:18;7.00;;;2.33;;
19402;SDS011;9837;48.888;8.998;2023-07-20T02:02:46;5.50;;;2.10;;
19402;SDS011;9837;48.888;8.998;2023-07-20T02:05:14;4.73;;;2.60;;
19402;SDS011;9837;48.888;8.998;2023-07-20T02:07:40;2.97;;;1.80;;
19402;SDS011;9837;48.888;8.998;2023-07-20T02:10:06;3.27;;;2.33;;
19402;SDS011;9837;48.888;8.998;2023-07-20T02:12:32;4.63;;;2.30;;
19402;SDS011;9837;48.888;8.998;2023-07-20T02:14:57;3.80;;;2.30;;
19402;SDS011;9837;48.888;8.998;2023-07-20T02:17:23;4.00;;;2.10;;
19402;SDS011;9837;48.888;8.998;2023-07-20T02:19:52;5.70;;;2.30;;
19402;SDS011;9837;48.888;8.998;2023-07-20T02:22:18;3.90;;;2.17;;
19402;SDS011;9837;48.888;8.998;2023-07-20T02:24:44;3.97;;;2.63;;
19402;SDS011;9837;48.888;8.998;2023-07-20T02:27:09;3.30;;;2.20;;
19402;SDS011;9837;48.888;8.998;2023-07-20T02:29:35;3.97;;;2.03;;
19402;SDS011;9837;48.888;8.998;2023-07-20T02:32:01;4.77;;;2.33;;
19402;SDS011;9837;48.888;8.998;2023-07-20T02:34:27;2.97;;;2.00;;
19402;SDS011;9837;48.888;8.998;2023-07-20T02:36:52;6.00;;;2.30;;
19402;SDS011;9837;48.888;8.998;2023-07-20T02:39:21;8.00;;;2.47;;
19402;SDS011;9837;48.888;8.998;2023-07-20T02:41:46;3.27;;;2.13;;
19402;SDS011;9837;48.888;8.998;2023-07-20T02:44:13;3.27;;;2.37;;
19402;SDS011;9837;48.888;8.998;2023-07-20T02:46:39;5.53;;;2.10;;
19402;SDS011;9837;48.888;8.998;2023-07-20T02:49:04;4.17;;;2.20;;
19402;SDS011;9837;48.888;8.998;2023-07-20T02:51:30;5.43;;;2.10;;
19402;SDS011;9837;48.888;8.998;2023-07-20T02:53:56;4.37;;;2.40;;
19402;SDS011;9837;48.888;8.998;2023-07-20T02:56:21;3.07;;;2.03;;
19402;SDS011;9837;48.888;8.998;2023-07-20T02:58:48;5.73;;;2.13;;
19402;SDS011;9837;48.888;8.998;2023-07-20T03:01:13;3.17;;;2.27;;
19402;SDS011;9837;48.888;8.998;2023-07-20T03:03:40;4.53;;;2.23;;
19402;SDS011;9837;48.888;8.998;2023-07-20T03:06:10;4.37;;;2.27;;
19402;SDS011;9837;48.888;8.998;2023-07-20T03:08:36;5.07;;;2.37;;
19402;SDS011;9837;48.888;8.998;2023-07-20T03:11:02;5.67;;;2.17;;
19402;SDS011;9837;48.888;8.998;2023-07-20T03:13:27;5.23;;;2.40;;
19402;SDS011;9837;48.888;8.998;2023-07-20T03:15:53;4.93;;;2.70;;
19402;SDS011;9837;48.888;8.998;2023-07-20T03:18:19;3.27;;;2.10;;
19402;SDS011;9837;48.888;8.998;2023-07-20T03:20:44;4.57;;;2.30;;
19402;SDS011;9837;48.888;8.998;2023-07-20T03:23:11;6.70;;;2.13;;
19402;SDS011;9837;48.888;8.998;2023-07-20T03:25:37;3.57;;;2.10;;
19402;SDS011;9837;48.888;8.998;2023-07-20T03:28:03;4.33;;;2.30;;
19402;SDS011;9837;48.888;8.998;2023-07-20T03:30:29;3.10;;;2.10;;
19402;SDS011;9837;48.888;8.998;2023-07-20T03:32:54;3.23;;;2.10;;
19402;SDS011;9837;48.888;8.998;2023-07-20T03:35:20;3.43;;;2.43;;
19402;SDS011;9837;48.888;8.998;2023-07-20T03:37:45;5.93;;;2.60;;
19402;SDS011;9837;48.888;8.998;2023-07-20T03:40:11;4.63;;;2.30;;
19402;SDS011;9837;48.888;8.998;2023-07-20T03:42:37;3.43;;;2.20;;
19402;SDS011;9837;48.888;8.998;2023-07-20T03:45:03;5.00;;;2.47;;
19402;SDS011;9837;48.888;8.998;2023-07-20T03:47:29;2.40;;;2.20;;
19402;SDS011;9837;48.888;8.998;2023-07-20T03:49:55;3.47;;;2.20;;
19402;SDS011;9837;48.888;8.998;2023-07-20T03:52:21;5.47;;;2.33;;
19402;SDS011;9837;48.888;8.998;2023-07-20T03:54:46;6.97;;;2.07;;
19402;SDS011;9837;48.888;8.998;2023-07-20T03:57:12;5.90;;;2.30;;
19402;SDS011;9837;48.888;8.998;2023-07-20T03:59:38;5.13;;;2.20;;
19402;SDS011;9837;48.888;8.998;2023-07-20T04:02:04;8.47;;;2.30;;
19402;SDS011;9837;48.888;8.998;2023-07-20T04:04:30;2.20;;;1.87;;
19402;SDS011;9837;48.888;8.998;2023-07-20T04:06:56;3.67;;;2.10;;
19402;SDS011;9837;48.888;8.998;2023-07-20T04:09:22;6.43;;;2.30;;
19402;SDS011;9837;48.888;8.998;2023-07-20T04:11:47;4.63;;;2.40;;
19402;SDS011;9837;48.888;8.998;2023-07-20T04:14:13;7.07;;;2.43;;
19402;SDS011;9837;48.888;8.998;2023-07-20T04:16:38;4.47;;;2.10;;
19402;SDS011;9837;48.888;8.998;2023-07-20T04:19:04;8.77;;;2.70;;
19402;SDS011;9837;48.888;8.998;2023-07-20T04:21:29;2.93;;;2.30;;
19402;SDS011;9837;48.888;8.998;2023-07-20T04:23:55;2.73;;;2.00;;
19402;SDS011;9837;48.888;8.998;2023-07-20T04:26:20;4.40;;;1.90;;
19402;SDS011;9837;48.888;8.998;2023-07-20T04:28:46;5.03;;;1.97;;
19402;SDS011;9837;48.888;8.998;2023-07-20T04:31:13;6.37;;;2.30;;
19402;SDS011;9837;48.888;8.998;2023-07-20T04:33:39;3.90;;;1.87;;
19402;SDS011;9837;48.888;8.998;2023-07-20T04:36:05;2.70;;;2.20;;
19402;SDS011;9837;48.888;8.998;2023-07-20T04:38:31;4.07;;;2.03;;
19402;SDS011;9837;48.888;8.998;2023-07-20T04:40:56;3.90;;;2.30;;
19402;SDS011;9837;48.888;8.998;2023-07-20T04:43:22;5.43;;;2.00;;
19402;SDS011;9837;48.888;8.998;2023-07-20T04:45:47;3.27;;;2.07;;
19402;SDS011;9837;48.888;8.998;2023-07-20T04:48:14;3.53;;;1.90;;
19402;SDS011;9837;48.888;8.998;2023-07-20T04:50:40;3.23;;;2.10;;
19402;SDS011;9837;48.888;8.998;2023-07-20T04:53:06;2.80;;;1.83;;
19402;SDS011;9837;48.888;8.998;2023-07-20T04:55:35;5.97;;;2.20;;
19402;SDS011;9837;48.888;8.998;2023-07-20T04:58:02;4.63;;;2.10;;
19402;SDS011;9837;48.888;8.998;2023-07-20T05:00:28;4.07;;;1.90;;
19402;SDS011;9837;48.888;8.998;2023-07-20T05:03:00;4.10;;;1.90;;
19402;SDS011;9837;48.888;8.998;2023-07-20T05:05:26;3.50;;;1.80;;
19402;SDS011;9837;48.888;8.998;2023-07-20T05:07:51;3.17;;;2.00;;
19402;SDS011;9837;48.888;8.998;2023-07-20T05:10:17;5.07;;;2.37;;
19402;SDS011;9837;48.888;8.998;2023-07-20T05:12:42;3.47;;;1.63;;
19402;SDS011;9837;48.888;8.998;2023-07-20T05:15:08;3.23;;;2.00;;
19402;SDS011;9837;48.888;8.998;2023-07-20T05:17:34;2.63;;;1.90;;
19402;SDS011;9837;48.888;8.998;2023-07-20T05:20:00;4.10;;;1.80;;
19402;SDS011;9837;48.888;8.998;2023-07-20T05:22:25;3.00;;;1.90;;
19402;SDS011;9837;48.888;8.998;2023-07-20T05:24:51;2.97;;;2.40;;
19402;SDS011;9837;48.888;8.998;2023-07-20T05:27:17;4.43;;;2.13;;
19402;SDS011;9837;48.888;8.998;2023-07-20T05:29:45;4.50;;;1.87;;
19402;SDS011;9837;48.888;8.998;2023-07-20T05:32:12;3.83;;;1.90;;
19402;SDS011;9837;48.888;8.998;2023-07-20T05:34:38;3.63;;;2.10;;
19402;SDS011;9837;48.888;8.998;2023-07-20T05:37:05;6.05;;;2.30;;
19402;SDS011;9837;48.888;8.998;2023-07-20T05:39:32;3.40;;;1.90;;
19402;SDS011;9837;48.888;8.998;2023-07-20T05:41:57;2.55;;;2.03;;
19402;SDS011;9837;48.888;8.998;2023-07-20T05:44:23;4.35;;;2.22;;
19402;SDS011;9837;48.888;8.998;2023-07-20T05:46:49;2.67;;;2.28;;
19402;SDS011;9837;48.888;8.998;2023-07-20T05:49:14;6.03;;;2.70;;
19402;SDS011;9837;48.888;8.998;2023-07-20T05:51:40;7.57;;;2.40;;
19402;SDS011;9837;48.888;8.998;2023-07-20T05:54:05;3.80;;;1.80;;
19402;SDS011;9837;48.888;8.998;2023-07-20T05:56:31;2.30;;;2.08;;
19402;SDS011;9837;48.888;8.998;2023-07-20T05:58:56;3.33;;;2.00;;
19402;SDS011;9837;48.888;8.998;2023-07-20T06:01:22;6.35;;;1.92;;
19402;SDS011;9837;48.888;8.998;2023-07-20T06:03:48;6.85;;;2.75;;
19402;SDS011;9837;48.888;8.998;2023-07-20T06:06:13;4.00;;;2.03;;
19402;SDS011;9837;48.888;8.998;2023-07-20T06:08:40;2.40;;;1.88;;
19402;SDS011;9837;48.888;8.998;2023-07-20T06:11:05;7.32;;;2.40;;
19402;SDS011;9837;48.888;8.998;2023-07-20T06:13:31;2.58;;;1.90;;
19402;SDS011;9837;48.888;8.998;2023-07-20T06:15:56;2.35;;;1.92;;
19402;SDS011;9837;48.888;8.998;2023-07-20T06:18:22;4.70;;;1.90;;
19402;SDS011;9837;48.888;8.998;2023-07-20T06:20:51;4.30;;;2.25;;
19402;SDS011;9837;48.888;8.998;2023-07-20T06:23:20;3.55;;;1.80;;
19402;SDS011;9837;48.888;8.998;2023-07-20T06:25:45;4.93;;;1.90;;
19402;SDS011;9837;48.888;8.998;2023-07-20T06:28:12;9.35;;;2.22;;
19402;SDS011;9837;48.888;8.998;2023-07-20T06:30:38;2.67;;;1.80;;
19402;SDS011;9837;48.888;8.998;2023-07-20T06:33:04;6.45;;;1.80;;
19402;SDS011;9837;48.888;8.998;2023-07-20T06:35:30;10.80;;;2.10;;
19402;SDS011;9837;48.888;8.998;2023-07-20T06:37:56;4.50;;;2.40;;
19402;SDS011;9837;48.888;8.998;2023-07-20T06:40:22;3.70;;;2.20;;
19402;SDS011;9837;48.888;8.998;2023-07-20T06:42:48;4.30;;;2.00;;
19402;SDS011;9837;48.888;8.998;2023-07-20T06:45:13;3.33;;;2.03;;
19402;SDS011;9837;48.888;8.998;2023-07-20T06:47:39;4.78;;;1.98;;
19402;SDS011;9837;48.888;8.998;2023-07-20T06:50:08;6.20;;;2.22;;
19402;SDS011;9837;48.888;8.998;2023-07-20T06:52:35;3.83;;;2.10;;
19402;SDS011;9837;48.888;8.998;2023-07-20T06:55:01;2.47;;;1.77;;
19402;SDS011;9837;48.888;8.998;2023-07-20T06:57:27;3.10;;;2.10;;
19402;SDS011;9837;48.888;8.998;2023-07-20T06:59:52;4.60;;;2.13;;
19402;SDS011;9837;48.888;8.998;2023-07-20T07:02:18;7.90;;;2.17;;
19402;SDS011;9837;48.888;8.998;2023-07-20T07:04:44;6.47;;;2.17;;
19402;SDS011;9837;48.888;8.998;2023-07-20T07:07:11;5.03;;;2.10;;
19402;SDS011;9837;48.888;8.998;2023-07-20T07:09:40;5.88;;;2.45;;
19402;SDS011;9837;48.888;8.998;2023-07-20T07:12:06;6.10;;;2.20;;
19402;SDS011;9837;48.888;8.998;2023-07-20T07:14:32;4.78;;;2.42;;
19402;SDS011;9837;48.888;8.998;2023-07-20T07:16:58;4.80;;;2.08;;
19402;SDS011;9837;48.888;8.998;2023-07-20T07:19:24;6.07;;;2.10;;
19402;SDS011;9837;48.888;8.998;2023-07-20T07:21:49;3.97;;;2.10;;
19402;SDS011;9837;48.888;8.998;2023-07-20T07:24:15;6.00;;;2.10;;
19402;SDS011;9837;48.888;8.998;2023-07-20T07:26:41;7.22;;;2.70;;
19402;SDS011;9837;48.888;8.998;2023-07-20T07:29:07;5.05;;;2.00;;
19402;SDS011;9837;48.888;8.998;2023-07-20T07:31:34;2.92;;;1.90;;
19402;SDS011;9837;48.888;8.998;2023-07-20T07:34:00;4.18;;;2.28;;
19402;SDS011;9837;48.888;8.998;2023-07-20T07:36:27;5.78;;;1.83;;
19402;SDS011;9837;48.888;8.998;2023-07-20T07:38:53;5.63;;;2.20;;
19402;SDS011;9837;48.888;8.998;2023-07-20T07:41:18;3.40;;;2.00;;
19402;SDS011;9837;48.888;8.998;2023-07-20T07:43:44;2.53;;;2.00;;
19402;SDS011;9837;48.888;8.998;2023-07-20T07:46:10;8.88;;;2.25;;
19402;SDS011;9837;48.888;8.998;2023-07-20T07:48:35;4.30;;;1.98;;
19402;SDS011;9837;48.888;8.998;2023-07-20T07:51:01;5.47;;;2.17;;
19402;SDS011;9837;48.888;8.998;2023-07-20T07:53:26;3.85;;;2.30;;
19402;SDS011;9837;48.888;8.998;2023-07-20T07:55:52;5.18;;;2.05;;
19402;SDS011;9837;48.888;8.998;2023-07-20T07:58:17;5.57;;;2.13;;
19402;SDS011;9837;48.888;8.998;2023-07-20T08:00:43;3.58;;;1.90;;
19402;SDS011;9837;48.888;8.998;2023-07-20T08:03:10;4.00;;;2.00;;
19402;SDS011;9837;48.888;8.998;2023-07-20T08:05:36;3.28;;;1.98;;
19402;SDS011;9837;48.888;8.998;2023-07-20T08:08:02;3.60;;;2.00;;
19402;SDS011;9837;48.888;8.998;2023-07-20T08:10:28;2.25;;;1.92;;
19402;SDS011;9837;48.888;8.998;2023-07-20T08:12:54;6.40;;;2.15;;
19402;SDS011;9837;48.888;8.998;2023-07-20T08:15:20;2.53;;;2.00;;
19402;SDS011;9837;48.888;8.998;2023-07-20T08:17:46;2.88;;;2.13;;
19402;SDS011;9837;48.888;8.998;2023-07-20T08:20:13;2.35;;;1.90;;
19402;SDS011;9837;48.888;8.998;2023-07-20T08:22:39;5.80;;;1.98;;
19402;SDS011;9837;48.888;8.998;2023-07-20T08:25:05;11.95;;;2.38;;
19402;SDS011;9837;48.888;8.998;2023-07-20T08:27:31;3.47;;;2.22;;
19402;SDS011;9837;48.888;8.998;2023-07-20T08:29:57;3.00;;;2.10;;
19402;SDS011;9837;48.888;8.998;2023-07-20T08:32:23;3.17;;;2.05;;
19402;SDS011;9837;48.888;8.998;2023-07-20T08:34:48;4.32;;;2.00;;
19402;SDS011;9837;48.888;8.998;2023-07-20T08:37:14;3.25;;;2.25;;
19402;SDS011;9837;48.888;8.998;2023-07-20T08:39:39;2.85;;;1.83;;
19402;SDS011;9837;48.888;8.998;2023-07-20T08:42:05;2.60;;;1.88;;
19402;SDS011;9837;48.888;8.998;2023-07-20T08:44:32;4.38;;;2.10;;
19402;SDS011;9837;48.888;8.998;2023-07-20T08:46:59;2.83;;;2.20;;
19402;SDS011;9837;48.888;8.998;2023-07-20T08:49:27;3.85;;;2.08;;
19402;SDS011;9837;48.888;8.998;2023-07-20T08:51:54;2.28;;;2.00;;
19402;SDS011;9837;48.888;8.998;2023-07-20T08:54:19;3.08;;;1.90;;
19402;SDS011;9837;48.888;8.998;2023-07-20T08:56:45;3.53;;;1.95;;
19402;SDS011;9837;48.888;8.998;2023-07-20T08:59:12;5.57;;;2.05;;
19402;SDS011;9837;48.888;8.998;2023-07-20T09:01:41;2.83;;;1.80;;
19402;SDS011;9837;48.888;8.998;2023-07-20T09:04:07;4.22;;;1.60;;
19402;SDS011;9837;48.888;8.998;2023-07-20T09:06:33;3.20;;;1.50;;
19402;SDS011;9837;48.888;8.998;2023-07-20T09:09:00;3.65;;;1.80;;
19402;SDS011;9837;48.888;8.998;2023-07-20T09:11:26;3.83;;;1.85;;
19402;SDS011;9837;48.888;8.998;2023-07-20T09:14:07;2.05;;;1.60;;
19402;SDS011;9837;48.888;8.998;2023-07-20T09:16:53;2.70;;;1.70;;
19402;SDS011;9837;48.888;8.998;2023-07-20T09:19:20;1.88;;;1.67;;
19402;SDS011;9837;48.888;8.998;2023-07-20T09:21:46;1.60;;;1.42;;
19402;SDS011;9837;48.888;8.998;2023-07-20T09:24:13;3.85;;;1.65;;
19402;SDS011;9837;48.888;8.998;2023-07-20T09:26:41;2.05;;;1.50;;
19402;SDS011;9837;48.888;8.998;2023-07-20T09:29:08;2.90;;;1.52;;
19402;SDS011;9837;48.888;8.998;2023-07-20T09:31:37;1.90;;;1.50;;
19402;SDS011;9837;48.888;8.998;2023-07-20T09:34:05;3.23;;;1.40;;
19402;SDS011;9837;48.888;8.998;2023-07-20T09:36:35;3.30;;;1.60;;
19402;SDS011;9837;48.888;8.998;2023-07-20T09:39:02;1.77;;;1.60;;
19402;SDS011;9837;48.888;8.998;2023-07-20T09:41:29;1.85;;;1.65;;
19402;SDS011;9837;48.888;8.998;2023-07-20T09:43:55;4.95;;;1.98;;
19402;SDS011;9837;48.888;8.998;2023-07-20T09:46:22;5.60;;;1.80;;
19402;SDS011;9837;48.888;8.998;2023-07-20T09:48:51;6.93;;;1.70;;
19402;SDS011;9837;48.888;8.998;2023-07-20T09:51:23;1.88;;;1.60;;
19402;SDS011;9837;48.888;8.998;2023-07-20T09:53:50;2.55;;;1.60;;
19402;SDS011;9837;48.888;8.998;2023-07-20T09:56:18;2.30;;;1.70;;
19402;SDS011;9837;48.888;8.998;2023-07-20T09:58:47;4.43;;;1.70;;
19402;SDS011;9837;48.888;8.998;2023-07-20T10:01:13;2.25;;;1.45;;
19402;SDS011;9837;48.888;8.998;2023-07-20T10:03:45;2.53;;;1.65;;
19402;SDS011;9837;48.888;8.998;2023-07-20T10:06:13;3.10;;;1.95;;
19402;SDS011;9837;48.888;8.998;2023-07-20T10:08:44;3.08;;;1.60;;
19402;SDS011;9837;48.888;8.998;2023-07-20T10:11:15;3.05;;;1.52;;
19402;SDS011;9837;48.888;8.998;2023-07-20T10:13:42;3.10;;;1.63;;
19402;SDS011;9837;48.888;8.998;2023-07-20T10:16:14;1.92;;;1.60;;
19402;SDS011;9837;48.888;8.998;2023-07-20T10:18:51;7.35;;;1.85;;
19402;SDS011;9837;48.888;8.998;2023-07-20T10:21:24;4.72;;;1.45;;
19402;SDS011;9837;48.888;8.998;2023-07-20T10:23:50;5.30;;;1.70;;
19402;SDS011;9837;48.888;8.998;2023-07-20T10:26:16;1.70;;;1.20;;
19402;SDS011;9837;48.888;8.998;2023-07-20T10:28:42;4.30;;;1.60;;
19402;SDS011;9837;48.888;8.998;2023-07-20T10:31:08;3.25;;;1.60;;
19402;SDS011;9837;48.888;8.998;2023-07-20T10:33:36;2.47;;;1.55;;
19402;SDS011;9837;48.888;8.998;2023-07-20T10:36:03;3.60;;;1.40;;
19402;SDS011;9837;48.888;8.998;2023-07-20T10:38:39;3.40;;;1.42;;
19402;SDS011;9837;48.888;8.998;2023-07-20T10:41:15;1.58;;;1.48;;
19402;SDS011;9837;48.888;8.998;2023-07-20T10:43:45;2.58;;;1.40;;
19402;SDS011;9837;48.888;8.998;2023-07-20T10:46:11;3.30;;;1.55;;
19402;SDS011;9837;48.888;8.998;2023-07-20T10:51:27;2.83;;;1.35;;
19402;SDS011;9837;48.888;8.998;2023-07-20T10:53:54;3.42;;;1.48;;
19402;SDS011;9837;48.888;8.998;2023-07-20T10:56:25;2.47;;;1.35;;
19402;SDS011;9837;48.888;8.998;2023-07-20T10:58:57;2.30;;;1.55;;
19402;SDS011;9837;48.888;8.998;2023-07-20T11:01:27;3.40;;;1.40;;
19402;SDS011;9837;48.888;8.998;2023-07-20T11:04:01;9.00;;;2.03;;
19402;SDS011;9837;48.888;8.998;2023-07-20T11:06:33;2.67;;;1.30;;
19402;SDS011;9837;48.888;8.998;2023-07-20T11:11:29;4.80;;;1.40;;
19402;SDS011;9837;48.888;8.998;2023-07-20T11:16:35;3.40;;;1.70;;
19402;SDS011;9837;48.888;8.998;2023-07-20T11:19:05;2.47;;;1.48;;
19402;SDS011;9837;48.888;8.998;2023-07-20T11:21:35;1.83;;;1.70;;
19402;SDS011;9837;48.888;8.998;2023-07-20T11:24:03;2.67;;;1.50;;
19402;SDS011;9837;48.888;8.998;2023-07-20T11:26:30;2.00;;;1.50;;
19402;SDS011;9837;48.888;8.998;2023-07-20T11:29:04;2.60;;;1.35;;
19402;SDS011;9837;48.888;8.998;2023-07-20T11:31:29;4.05;;;1.70;;
19402;SDS011;9837;48.888;8.998;2023-07-20T11:33:55;1.90;;;1.60;;
19402;SDS011;9837;48.888;8.998;2023-07-20T11:36:21;3.65;;;1.60;;
19402;SDS011;9837;48.888;8.998;2023-07-20T11:38:47;2.28;;;1.63;;
19402;SDS011;9837;48.888;8.998;2023-07-20T11:41:12;3.83;;;1.35;;
19402;SDS011;9837;48.888;8.998;2023-07-20T11:43:38;3.60;;;1.70;;
19402;SDS011;9837;48.888;8.998;2023-07-20T11:46:05;1.88;;;1.60;;
19402;SDS011;9837;48.888;8.998;2023-07-20T11:48:31;4.25;;;1.80;;
19402;SDS011;9837;48.888;8.998;2023-07-20T11:50:56;2.42;;;1.50;;
19402;SDS011;9837;48.888;8.998;2023-07-20T11:53:22;6.43;;;1.38;;
19402;SDS011;9837;48.888;8.998;2023-07-20T11:55:50;4.15;;;1.50;;
19402;SDS011;9837;48.888;8.998;2023-07-20T11:58:16;3.53;;;1.42;;
19402;SDS011;9837;48.888;8.998;2023-07-20T12:00:43;1.83;;;1.40;;
19402;SDS011;9837;48.888;8.998;2023-07-20T12:03:10;4.18;;;1.50;;
19402;SDS011;9837;48.888;8.998;2023-07-20T12:05:38;1.98;;;1.45;;
19402;SDS011;9837;48.888;8.998;2023-07-20T12:08:04;1.60;;;1.30;;
19402;SDS011;9837;48.888;8.998;2023-07-20T12:10:29;2.35;;;1.40;;
19402;SDS011;9837;48.888;8.998;2023-07-20T12:13:00;1.73;;;1.52;;
19402;SDS011;9837;48.888;8.998;2023-07-20T12:15:30;3.58;;;1.70;;
19402;SDS011;9837;48.888;8.998;2023-07-20T12:17:57;1.80;;;1.60;;
19402;SDS011;9837;48.888;8.998;2023-07-20T12:20:27;2.17;;;1.30;;
19402;SDS011;9837;48.888;8.998;2023-07-20T12:23:02;3.25;;;1.48;;
19402;SDS011;9837;48.888;8.998;2023-07-20T12:25:36;2.20;;;1.75;;
19402;SDS011;9837;48.888;8.998;2023-07-20T12:28:13;2.97;;;1.60;;
19402;SDS011;9837;48.888;8.998;2023-07-20T12:30:43;3.63;;;1.45;;
19402;SDS011;9837;48.888;8.998;2023-07-20T12:33:09;2.20;;;1.67;;
19402;SDS011;9837;48.888;8.998;2023-07-20T12:35:36;1.65;;;1.40;;
19402;SDS011;9837;48.888;8.998;2023-07-20T12:38:02;4.03;;;1.50;;
19402;SDS011;9837;48.888;8.998;2023-07-20T12:40:28;2.08;;;1.73;;
19402;SDS011;9837;48.888;8.998;2023-07-20T12:42:54;2.83;;;1.58;;
19402;SDS011;9837;48.888;8.998;2023-07-20T12:45:20;2.00;;;1.40;;
19402;SDS011;9837;48.888;8.998;2023-07-20T12:47:47;4.38;;;1.48;;
19402;SDS011;9837;48.888;8.998;2023-07-20T12:50:13;3.20;;;2.05;;
19402;SDS011;9837;48.888;8.998;2023-07-20T12:52:39;4.65;;;1.90;;
19402;SDS011;9837;48.888;8.998;2023-07-20T12:55:05;3.08;;;1.58;;
19402;SDS011;9837;48.888;8.998;2023-07-20T12:57:33;4.90;;;1.63;;
19402;SDS011;9837;48.888;8.998;2023-07-20T12:59:59;3.08;;;1.77;;
19402;SDS011;9837;48.888;8.998;2023-07-20T13:02:26;2.65;;;1.58;;
19402;SDS011;9837;48.888;8.998;2023-07-20T13:04:52;2.25;;;1.55;;
19402;SDS011;9837;48.888;8.998;2023-07-20T13:07:22;2.30;;;1.48;;
19402;SDS011;9837;48.888;8.998;2023-07-20T13:09:55;1.80;;;1.50;;
19402;SDS011;9837;48.888;8.998;2023-07-20T13:12:21;2.95;;;1.50;;
19402;SDS011;9837;48.888;8.998;2023-07-20T13:14:47;2.00;;;1.60;;
19402;SDS011;9837;48.888;8.998;2023-07-20T13:17:12;2.55;;;1.45;;
19402;SDS011;9837;48.888;8.998;2023-07-20T13:19:38;3.47;;;1.50;;
19402;SDS011;9837;48.888;8.998;2023-07-20T13:22:04;3.78;;;1.48;;
19402;SDS011;9837;48.888;8.998;2023-07-20T13:24:29;2.15;;;1.50;;
19402;SDS011;9837;48.888;8.998;2023-07-20T13:26:55;2.70;;;1.60;;
19402;SDS011;9837;48.888;8.998;2023-07-20T13:29:21;2.15;;;1.70;;
19402;SDS011;9837;48.888;8.998;2023-07-20T13:31:46;8.88;;;1.70;;
19402;SDS011;9837;48.888;8.998;2023-07-20T13:34:12;1.67;;;1.42;;
19402;SDS011;9837;48.888;8.998;2023-07-20T13:36:38;4.88;;;1.58;;
19402;SDS011;9837;48.888;8.998;2023-07-20T13:39:03;1.95;;;1.52;;
19402;SDS011;9837;48.888;8.998;2023-07-20T13:41:30;1.95;;;1.60;;
19402;SDS011;9837;48.888;8.998;2023-07-20T13:43:57;2.75;;;1.50;;
19402;SDS011;9837;48.888;8.998;2023-07-20T13:46:23;1.63;;;1.40;;
19402;SDS011;9837;48.888;8.998;2023-07-20T13:48:48;2.45;;;1.45;;
19402;SDS011;9837;48.888;8.998;2023-07-20T13:51:14;13.73;;;2.20;;
19402;SDS011;9837;48.888;8.998;2023-07-20T13:53:39;3.45;;;1.23;;
19402;SDS011;9837;48.888;8.998;2023-07-20T13:56:05;3.17;;;1.48;;
19402;SDS011;9837;48.888;8.998;2023-07-20T13:58:32;5.07;;;1.40;;
19402;SDS011;9837;48.888;8.998;2023-07-20T14:00:57;1.63;;;1.30;;
19402;SDS011;9837;48.888;8.998;2023-07-20T14:03:23;3.08;;;1.50;;
19402;SDS011;9837;48.888;8.998;2023-07-20T14:05:49;2.15;;;1.50;;
19402;SDS011;9837;48.888;8.998;2023-07-20T14:08:15;2.90;;;1.40;;
19402;SDS011;9837;48.888;8.998;2023-07-20T14:10:41;1.65;;;1.33;;
19402;SDS011;9837;48.888;8.998;2023-07-20T14:13:07;2.85;;;1.40;;
19402;SDS011;9837;48.888;8.998;2023-07-20T14:15:33;4.65;;;1.80;;
19402;SDS011;9837;48.888;8.998;2023-07-20T14:18:00;6.75;;;2.05;;
19402;SDS011;9837;48.888;8.998;2023-07-20T14:20:25;2.35;;;1.40;;
19402;SDS011;9837;48.888;8.998;2023-07-20T14:22:52;2.15;;;1.35;;
19402;SDS011;9837;48.888;8.998;2023-07-20T14:25:17;4.10;;;1.15;;
19402;SDS011;9837;48.888;8.998;2023-07-20T14:27:43;1.30;;;1.20;;
19402;SDS011;9837;48.888;8.998;2023-07-20T14:30:08;2.90;;;1.20;;
19402;SDS011;9837;48.888;8.998;2023-07-20T14:32:34;1.95;;;1.23;;
19402;SDS011;9837;48.888;8.998;2023-07-20T14:35:00;1.63;;;1.50;;
19402;SDS011;9837;48.888;8.998;2023-07-20T14:37:25;1.38;;;1.27;;
19402;SDS011;9837;48.888;8.998;2023-07-20T14:39:51;2.65;;;1.40;;
19402;SDS011;9837;48.888;8.998;2023-07-20T14:42:17;1.95;;;1.45;;
19402;SDS011;9837;48.888;8.998;2023-07-20T14:44:43;2.90;;;1.42;;
19402;SDS011;9837;48.888;8.998;2023-07-20T14:47:09;2.35;;;1.20;;
19402;SDS011;9837;48.888;8.998;2023-07-20T14:49:35;1.95;;;1.55;;
19402;SDS011;9837;48.888;8.998;2023-07-20T14:52:00;2.50;;;1.55;;
19402;SDS011;9837;48.888;8.998;2023-07-20T14:54:27;1.40;;;1.30;;
19402;SDS011;9837;48.888;8.998;2023-07-20T14:56:52;2.15;;;1.45;;
19402;SDS011;9837;48.888;8.998;2023-07-20T14:59:18;1.60;;;1.33;;
19402;SDS011;9837;48.888;8.998;2023-07-20T15:01:44;1.30;;;1.17;;
19402;SDS011;9837;48.888;8.998;2023-07-20T15:04:15;2.33;;;1.45;;
19402;SDS011;9837;48.888;8.998;2023-07-20T15:06:41;1.10;;;1.00;;
19402;SDS011;9837;48.888;8.998;2023-07-20T15:09:07;1.30;;;1.20;;